createdAt,value
2022-08-08T00:00:51.175Z,8.68
2022-08-08T00:02:03.749Z,8.55
2022-08-08T00:03:19.893Z,8.48
2022-08-08T00:04:35.171Z,8.55
2022-08-08T00:06:02.746Z,9.02
2022-08-08T00:07:24.444Z,8.40
2022-08-08T00:08:43.469Z,8.85
2022-08-08T00:10:03.511Z,7.65
2022-08-08T00:11:14.799Z,8.52
2022-08-08T00:12:24.753Z,8.82
2022-08-08T00:14:16.902Z,8.82
2022-08-08T00:15:56.999Z,8.75
2022-08-08T00:17:23.262Z,8.38
2022-08-08T00:18:43.934Z,7.32
2022-08-08T00:19:51.458Z,7.95
2022-08-08T00:20:56.868Z,8.77
2022-08-08T00:22:10.238Z,9.82
2022-08-08T00:23:21.280Z,9.05
2022-08-08T00:24:37.270Z,9.18
2022-08-08T00:25:46.419Z,8.30
2022-08-08T00:26:57.049Z,8.65
2022-08-08T00:28:02.029Z,8.85
2022-08-08T00:29:45.053Z,8.48
2022-08-08T00:31:01.005Z,8.73
2022-08-08T00:32:35.387Z,8.80
2022-08-08T00:34:17.226Z,8.80
2022-08-08T00:35:25.668Z,8.48
2022-08-08T00:36:35.183Z,8.45
2022-08-08T00:38:02.313Z,9.35
2022-08-08T00:41:07.486Z,8.75
2022-08-08T00:41:10.209Z,8.40
2022-08-08T00:42:36.781Z,8.32
2022-08-08T00:43:58.722Z,8.60
2022-08-08T00:45:39.431Z,9.23
2022-08-08T00:47:23.272Z,9.30
2022-08-08T00:48:40.531Z,8.20
2022-08-08T00:49:50.363Z,8.60
2022-08-08T00:51:09.788Z,9.10
2022-08-08T00:52:51.432Z,8.35
2022-08-08T00:54:28.703Z,8.73
2022-08-08T00:55:53.149Z,8.73
2022-08-08T00:57:07.593Z,8.43
2022-08-08T00:58:55.606Z,8.50
2022-08-08T01:00:17.241Z,8.90
2022-08-08T01:01:55.796Z,9.02
2022-08-08T01:04:01.557Z,8.68
2022-08-08T01:05:07.287Z,8.48
2022-08-08T01:06:47.527Z,8.98
2022-08-08T01:08:01.846Z,8.18
2022-08-08T01:09:35.100Z,7.90
2022-08-08T01:11:19.985Z,9.00
2022-08-08T01:12:41.983Z,8.25
2022-08-08T01:13:58.213Z,8.43
2022-08-08T01:15:47.083Z,9.40
2022-08-08T01:17:13.540Z,8.43
2022-08-08T01:18:56.758Z,8.35
2022-08-08T01:20:03.494Z,8.77
2022-08-08T01:21:14.372Z,8.27
2022-08-08T01:22:23.590Z,8.45
2022-08-08T01:24:05.460Z,8.65
2022-08-08T01:25:40.039Z,8.10
2022-08-08T01:26:55.763Z,8.50
2022-08-08T01:28:28.153Z,8.70
2022-08-08T01:29:59.273Z,8.07
2022-08-08T01:32:02.878Z,9.15
2022-08-08T01:33:28.036Z,8.40
2022-08-08T01:34:44.668Z,8.57
2022-08-08T01:36:28.431Z,7.70
2022-08-08T01:38:01.442Z,8.38
2022-08-08T01:39:42.409Z,9.13
2022-08-08T01:40:47.688Z,8.27
2022-08-08T01:42:11.217Z,8.82
2022-08-08T01:43:45.815Z,8.55
2022-08-08T01:45:04.416Z,8.40
2022-08-08T01:46:33.086Z,8.57
2022-08-08T01:48:23.330Z,8.10
2022-08-08T01:49:40.549Z,7.70
2022-08-08T01:51:00.938Z,8.20
2022-08-08T01:53:28.788Z,7.88
2022-08-08T01:55:17.135Z,8.45
2022-08-08T01:56:27.703Z,8.48
2022-08-08T01:58:11.215Z,8.40
2022-08-08T01:59:23.913Z,8.88
2022-08-08T02:00:58.209Z,7.53
2022-08-08T02:02:34.827Z,8.40
2022-08-08T02:04:08.778Z,9.00
2022-08-08T02:05:33.774Z,8.40
2022-08-08T02:07:00.832Z,8.00
2022-08-08T02:08:38.648Z,7.32
2022-08-08T02:10:30.174Z,7.40
2022-08-08T02:11:59.096Z,8.18
2022-08-08T02:13:11.032Z,8.32
2022-08-08T02:14:58.954Z,7.85
2022-08-08T02:16:20.890Z,7.93
2022-08-08T02:17:52.729Z,8.40
2022-08-08T02:19:56.953Z,8.57
2022-08-08T02:21:32.405Z,7.63
2022-08-08T02:22:57.125Z,7.85
2022-08-08T02:24:14.769Z,7.55
2022-08-08T02:25:47.160Z,7.85
2022-08-08T02:27:01.682Z,7.50
2022-08-08T02:28:54.335Z,7.90
2022-08-08T02:29:55.824Z,7.75
2022-08-08T02:31:54.128Z,8.50
2022-08-08T02:33:00.844Z,7.97
2022-08-08T02:34:09.906Z,7.65
2022-08-08T02:36:03.794Z,7.20
2022-08-08T02:37:52.773Z,8.05
2022-08-08T02:39:42.589Z,8.40
2022-08-08T02:40:56.727Z,7.65
2022-08-08T02:42:38.315Z,7.20
2022-08-08T02:44:42.463Z,7.25
2022-08-08T02:45:56.702Z,7.43
2022-08-08T02:47:24.976Z,7.05
2022-08-08T02:49:14.552Z,7.13
2022-08-08T02:51:11.761Z,8.18
2022-08-08T02:52:35.319Z,7.18
2022-08-08T02:54:07.461Z,7.20
2022-08-08T02:55:19.831Z,7.15
2022-08-08T02:56:48.215Z,7.05
2022-08-08T02:58:15.041Z,7.47
2022-08-08T02:59:58.537Z,7.70
2022-08-08T03:01:50.019Z,7.30
2022-08-08T03:03:10.768Z,7.47
2022-08-08T03:05:02.764Z,8.20
2022-08-08T03:06:24.152Z,6.90
2022-08-08T03:07:58.109Z,7.78
2022-08-08T03:09:21.770Z,7.05
2022-08-08T03:10:37.088Z,7.35
2022-08-08T03:12:14.015Z,7.57
2022-08-08T03:15:57.395Z,7.90
2022-08-08T03:15:58.850Z,8.25
2022-08-08T03:17:09.913Z,8.02
2022-08-08T03:18:31.099Z,8.48
2022-08-08T03:20:04.430Z,7.95
2022-08-08T03:21:14.655Z,7.85
2022-08-08T03:22:38.779Z,7.65
2022-08-08T03:23:54.792Z,7.50
2022-08-08T03:25:14.890Z,7.90
2022-08-08T03:26:30.843Z,7.45
2022-08-08T03:27:42.259Z,6.65
2022-08-08T03:28:47.408Z,6.97
2022-08-08T03:29:58.580Z,7.07
2022-08-08T03:31:25.318Z,6.35
2022-08-08T03:32:53.386Z,7.22
2022-08-08T03:34:01.222Z,7.57
2022-08-08T03:35:05.956Z,7.28
2022-08-08T03:36:19.462Z,7.30
2022-08-08T03:38:53.755Z,7.68
2022-08-08T03:38:57.777Z,7.03
2022-08-08T03:40:10.953Z,6.55
2022-08-08T03:42:12.711Z,6.80
2022-08-08T03:42:54.524Z,6.50
2022-08-08T03:43:59.496Z,7.43
2022-08-08T03:45:02.241Z,7.65
2022-08-08T03:46:25.433Z,7.13
2022-08-08T03:47:39.387Z,7.15
2022-08-08T03:49:30.151Z,7.00
2022-08-08T03:50:24.878Z,7.53
2022-08-08T03:51:50.309Z,7.38
2022-08-08T03:52:49.877Z,8.07
2022-08-08T03:53:55.075Z,8.00
2022-08-08T03:55:10.928Z,7.20
2022-08-08T03:56:31.988Z,7.68
2022-08-08T03:58:31.854Z,7.80
2022-08-08T03:58:55.732Z,7.70
2022-08-08T04:00:02.756Z,7.43
2022-08-08T04:01:23.633Z,7.40
2022-08-08T04:02:47.604Z,7.30
2022-08-08T04:03:58.748Z,6.93
2022-08-08T04:05:05.132Z,6.88
2022-08-08T04:06:11.993Z,7.30
2022-08-08T04:07:16.398Z,7.00
2022-08-08T04:08:33.879Z,7.15
2022-08-08T04:10:02.925Z,7.03
2022-08-08T04:10:59.679Z,7.18
2022-08-08T04:12:01.739Z,8.00
2022-08-08T04:13:17.298Z,7.22
2022-08-08T04:14:35.432Z,7.30
2022-08-08T04:15:38.904Z,7.88
2022-08-08T04:16:41.556Z,8.15
2022-08-08T04:17:46.305Z,7.57
2022-08-08T04:19:00.295Z,7.65
2022-08-08T04:20:04.924Z,8.23
2022-08-08T04:21:06.712Z,8.55
2022-08-08T04:22:10.141Z,7.95
2022-08-08T04:23:11.833Z,7.32
2022-08-08T04:24:28.718Z,7.20
2022-08-08T04:25:36.769Z,7.78
2022-08-08T04:26:57.585Z,7.47
2022-08-08T04:28:34.284Z,7.15
2022-08-08T04:29:22.029Z,7.93
2022-08-08T04:30:24.629Z,7.90
2022-08-08T04:31:56.960Z,7.43
2022-08-08T04:32:50.356Z,7.43
2022-08-08T04:33:52.599Z,9.00
2022-08-08T04:34:58.402Z,8.95
2022-08-08T04:36:00.413Z,8.48
2022-08-08T04:37:03.931Z,8.80
2022-08-08T04:38:06.282Z,8.43
2022-08-08T04:40:05.926Z,7.68
2022-08-08T04:40:33.043Z,7.93
2022-08-08T04:41:36.877Z,7.88
2022-08-08T04:42:56.051Z,7.80
2022-08-08T04:43:59.059Z,8.52
2022-08-08T04:45:01.042Z,7.90
2022-08-08T04:46:02.839Z,8.05
2022-08-08T04:47:05.462Z,6.65
2022-08-08T04:48:15.019Z,7.68
2022-08-08T04:49:16.876Z,6.82
2022-08-08T04:50:24.805Z,6.63
2022-08-08T04:51:54.980Z,6.80
2022-08-08T04:53:00.419Z,7.20
2022-08-08T04:54:38.727Z,6.97
2022-08-08T04:55:37.701Z,6.68
2022-08-08T04:56:50.034Z,6.97
2022-08-08T04:57:51.624Z,7.18
2022-08-08T04:58:53.415Z,9.20
2022-08-08T04:59:59.466Z,7.97
2022-08-08T05:01:05.745Z,6.88
2022-08-08T05:02:13.680Z,6.80
2022-08-08T05:03:18.501Z,7.03
2022-08-08T05:04:37.832Z,7.40
2022-08-08T05:05:44.932Z,6.88
2022-08-08T05:06:52.334Z,7.57
2022-08-08T05:07:54.608Z,6.55
2022-08-08T05:09:02.653Z,6.18
2022-08-08T05:10:05.328Z,6.55
2022-08-08T05:11:09.595Z,6.47
2022-08-08T05:12:20.615Z,6.72
2022-08-08T05:13:23.303Z,6.15
2022-08-08T05:14:29.225Z,6.18
2022-08-08T05:16:36.372Z,6.38
2022-08-08T05:17:01.464Z,6.00
2022-08-08T05:18:03.293Z,5.90
2022-08-08T05:19:05.764Z,5.90
2022-08-08T05:20:27.355Z,5.72
2022-08-08T05:21:29.511Z,5.72
2022-08-08T05:22:46.187Z,5.45
2022-08-08T05:23:50.726Z,5.82
2022-08-08T05:25:06.552Z,6.15
2022-08-08T05:26:08.142Z,6.97
2022-08-08T05:27:16.005Z,6.80
2022-08-08T05:28:48.401Z,6.65
2022-08-08T05:29:40.786Z,7.00
2022-08-08T05:30:47.291Z,7.00
2022-08-08T05:32:04.231Z,6.70
2022-08-08T05:33:07.282Z,6.72
2022-08-08T05:35:05.205Z,6.72
2022-08-08T05:36:10.542Z,8.10
2022-08-08T05:37:53.418Z,7.63
2022-08-08T05:38:51.303Z,7.70
2022-08-08T05:39:57.070Z,8.35
2022-08-08T05:40:59.181Z,8.18
2022-08-08T05:42:00.978Z,7.93
2022-08-08T05:43:17.290Z,7.93
2022-08-08T05:44:31.160Z,7.75
2022-08-08T05:45:42.952Z,9.05
2022-08-08T05:47:03.301Z,7.65
2022-08-08T05:48:08.157Z,8.65
2022-08-08T05:49:11.399Z,8.48
2022-08-08T05:50:13.205Z,8.75
2022-08-08T05:51:18.057Z,8.18
2022-08-08T05:52:20.245Z,9.13
2022-08-08T05:53:56.025Z,8.35
2022-08-08T05:55:02.034Z,8.52
2022-08-08T05:56:11.208Z,8.95
2022-08-08T05:57:36.672Z,8.98
2022-08-08T05:58:57.045Z,9.13
2022-08-08T06:00:23.137Z,9.00
2022-08-08T06:01:56.190Z,9.27
2022-08-08T06:03:08.023Z,8.40
2022-08-08T06:04:13.712Z,8.60
2022-08-08T06:05:34.597Z,8.48
2022-08-08T06:06:42.140Z,8.35
2022-08-08T06:07:51.089Z,8.45
2022-08-08T06:09:00.487Z,8.70
2022-08-08T06:10:24.755Z,8.23
2022-08-08T06:11:28.329Z,7.85
2022-08-08T06:12:33.971Z,9.02
2022-08-08T06:13:47.392Z,8.73
2022-08-08T06:14:49.691Z,8.68
2022-08-08T06:15:54.952Z,7.78
2022-08-08T06:17:01.065Z,8.48
2022-08-08T06:18:20.627Z,7.68
2022-08-08T06:19:24.359Z,7.57
2022-08-08T06:20:29.786Z,8.30
2022-08-08T06:21:48.542Z,8.73
2022-08-08T06:23:04.985Z,7.75
2022-08-08T06:24:23.137Z,8.18
2022-08-08T06:26:38.268Z,8.27
2022-08-08T06:27:04.901Z,8.05
2022-08-08T06:28:15.199Z,8.00
2022-08-08T06:30:00.314Z,7.60
2022-08-08T06:31:00.794Z,7.75
2022-08-08T06:32:11.463Z,7.60
2022-08-08T06:33:36.887Z,7.90
2022-08-08T06:34:56.297Z,7.75
2022-08-08T06:36:11.641Z,7.68
2022-08-08T06:37:36.941Z,7.40
2022-08-08T06:38:45.747Z,8.13
2022-08-08T06:39:56.296Z,7.63
2022-08-08T06:41:06.648Z,7.45
2022-08-08T06:42:13.089Z,8.02
2022-08-08T06:43:28.326Z,7.82
2022-08-08T06:44:31.552Z,7.70
2022-08-08T06:45:34.113Z,7.50
2022-08-08T06:46:35.974Z,7.60
2022-08-08T06:47:52.123Z,7.80
2022-08-08T06:49:00.804Z,7.47
2022-08-08T06:50:04.144Z,7.40
2022-08-08T06:51:08.360Z,7.68
2022-08-08T06:52:10.972Z,7.70
2022-08-08T06:53:20.450Z,8.07
2022-08-08T06:54:23.381Z,7.68
2022-08-08T06:55:25.855Z,7.97
2022-08-08T06:56:31.166Z,7.57
2022-08-08T06:57:44.490Z,7.43
2022-08-08T06:58:55.489Z,7.30
2022-08-08T07:00:09.931Z,7.15
2022-08-08T07:02:16.624Z,7.20
2022-08-08T07:02:45.125Z,7.40
2022-08-08T07:04:41.592Z,7.68
2022-08-08T07:05:25.151Z,7.82
2022-08-08T07:06:34.318Z,8.32
2022-08-08T07:07:37.123Z,8.13
2022-08-08T07:08:39.713Z,8.02
2022-08-08T07:10:07.914Z,7.65
2022-08-08T07:11:22.556Z,7.03
2022-08-08T07:12:47.851Z,7.60
2022-08-08T07:14:00.268Z,8.00
2022-08-08T07:15:15.370Z,7.18
2022-08-08T07:17:08.837Z,7.93
2022-08-08T07:18:36.317Z,7.78
2022-08-08T07:19:33.589Z,8.07
2022-08-08T07:20:50.419Z,7.80
2022-08-08T07:22:11.689Z,7.72
2022-08-08T07:23:29.990Z,7.38
2022-08-08T07:24:57.554Z,7.60
2022-08-08T07:26:03.129Z,7.28
2022-08-08T07:27:09.348Z,7.25
2022-08-08T07:28:31.573Z,7.57
2022-08-08T07:30:02.235Z,7.47
2022-08-08T07:30:59.151Z,6.25
2022-08-08T07:32:01.798Z,6.72
2022-08-08T07:33:06.882Z,7.28
2022-08-08T07:34:26.747Z,7.35
2022-08-08T07:35:35.491Z,7.30
2022-08-08T07:36:48.133Z,7.32
2022-08-08T07:38:04.861Z,7.22
2022-08-08T07:39:13.312Z,7.15
2022-08-08T07:40:29.138Z,6.97
2022-08-08T07:41:58.827Z,6.22
2022-08-08T07:42:54.995Z,5.97
2022-08-08T07:43:59.976Z,6.43
2022-08-08T07:45:01.851Z,5.32
2022-08-08T07:46:18.477Z,5.47
2022-08-08T07:47:38.115Z,4.78
2022-08-08T07:48:40.210Z,5.18
2022-08-08T07:49:46.238Z,6.05
2022-08-08T07:50:55.006Z,6.13
2022-08-08T07:51:58.162Z,6.07
2022-08-08T07:53:04.253Z,5.53
2022-08-08T07:54:41.380Z,5.22
2022-08-08T07:55:43.093Z,5.93
2022-08-08T07:57:19.762Z,6.55
2022-08-08T07:58:31.547Z,6.18
2022-08-08T07:59:49.517Z,6.65
2022-08-08T08:01:11.216Z,6.60
2022-08-08T08:02:35.302Z,5.90
2022-08-08T08:03:51.240Z,5.53
2022-08-08T08:05:00.980Z,5.80
2022-08-08T08:06:06.903Z,6.03
2022-08-08T08:07:10.499Z,5.82
2022-08-08T08:08:20.456Z,5.97
2022-08-08T08:09:26.466Z,5.47
2022-08-08T08:10:30.248Z,6.53
2022-08-08T08:11:51.688Z,5.93
2022-08-08T08:13:01.774Z,6.55
2022-08-08T08:14:09.597Z,6.57
2022-08-08T08:15:17.471Z,6.15
2022-08-08T08:16:23.637Z,6.50
2022-08-08T08:17:26.027Z,6.22
2022-08-08T08:18:58.278Z,5.95
2022-08-08T08:20:04.609Z,6.32
2022-08-08T08:21:14.518Z,5.97
2022-08-08T08:22:25.472Z,5.97
2022-08-08T08:23:40.861Z,6.35
2022-08-08T08:24:46.328Z,5.68
2022-08-08T08:25:52.069Z,6.30
2022-08-08T08:26:58.411Z,6.78
2022-08-08T08:28:00.433Z,5.57
2022-08-08T08:29:05.358Z,6.07
2022-08-08T08:30:08.861Z,5.47
2022-08-08T08:31:10.587Z,5.13
2022-08-08T08:32:12.239Z,5.97
2022-08-08T08:33:26.371Z,5.47
2022-08-08T08:34:32.424Z,5.30
2022-08-08T08:36:19.011Z,5.72
2022-08-08T08:36:56.939Z,5.75
2022-08-08T08:38:17.598Z,5.93
2022-08-08T08:39:23.051Z,5.72
2022-08-08T08:40:26.270Z,5.75
2022-08-08T08:41:31.034Z,5.60
2022-08-08T08:42:36.240Z,5.43
2022-08-08T08:43:42.463Z,5.35
2022-08-08T08:44:47.722Z,5.75
2022-08-08T08:45:50.857Z,5.13
2022-08-08T08:47:00.448Z,4.82
2022-08-08T08:48:04.717Z,5.47
2022-08-08T08:49:06.513Z,5.60
2022-08-08T08:50:27.873Z,4.88
2022-08-08T08:51:31.864Z,5.50
2022-08-08T08:52:48.878Z,5.00
2022-08-08T08:54:03.216Z,5.00
2022-08-08T08:55:05.606Z,5.15
2022-08-08T08:56:08.485Z,5.18
2022-08-08T08:57:17.120Z,5.05
2022-08-08T08:58:42.252Z,4.80
2022-08-08T08:59:59.654Z,5.35
2022-08-08T09:01:08.605Z,4.85
2022-08-08T09:02:20.891Z,5.22
2022-08-08T09:03:31.497Z,4.97
2022-08-08T09:04:50.008Z,5.13
2022-08-08T09:05:54.902Z,4.88
2022-08-08T09:06:59.401Z,4.22
2022-08-08T09:08:13.085Z,4.43
2022-08-08T09:09:41.184Z,4.72
2022-08-08T09:10:48.009Z,4.97
2022-08-08T09:12:02.041Z,4.63
2022-08-08T09:13:10.680Z,4.03
2022-08-08T09:14:14.544Z,3.80
2022-08-08T09:15:37.209Z,3.25
2022-08-08T09:16:38.999Z,3.22
2022-08-08T09:17:55.206Z,3.08
2022-08-08T09:18:58.711Z,3.70
2022-08-08T09:21:56.298Z,3.83
2022-08-08T09:21:58.843Z,3.53
2022-08-08T09:22:45.297Z,2.63
2022-08-08T09:23:47.799Z,2.70
2022-08-08T09:24:51.162Z,3.05
2022-08-08T09:26:32.543Z,2.95
2022-08-08T09:27:57.650Z,3.05
2022-08-08T09:29:06.533Z,3.08
2022-08-08T09:30:14.813Z,3.42
2022-08-08T09:31:57.600Z,3.10
2022-08-08T09:33:54.776Z,3.00
2022-08-08T09:34:32.872Z,2.70
2022-08-08T09:35:38.460Z,2.63
2022-08-08T09:37:29.169Z,2.70
2022-08-08T09:38:53.173Z,2.63
2022-08-08T09:40:10.847Z,2.30
2022-08-08T09:41:17.482Z,2.88
2022-08-08T09:42:25.713Z,2.47
2022-08-08T09:44:04.596Z,2.72
2022-08-08T09:45:20.509Z,2.50
2022-08-08T09:46:34.755Z,2.70
2022-08-08T09:48:04.076Z,2.78
2022-08-08T09:49:18.031Z,2.67
2022-08-08T09:50:32.570Z,2.88
2022-08-08T09:51:41.682Z,2.63
2022-08-08T09:53:23.872Z,2.67
2022-08-08T09:54:36.847Z,2.35
2022-08-08T09:56:03.547Z,2.67
2022-08-08T09:57:03.640Z,2.83
2022-08-08T09:58:07.726Z,2.65
2022-08-08T09:59:40.423Z,2.60
2022-08-08T10:00:53.461Z,2.45
2022-08-08T10:02:03.016Z,2.50
2022-08-08T10:03:19.981Z,2.65
2022-08-08T10:04:39.659Z,2.65
2022-08-08T10:05:46.891Z,2.50
2022-08-08T10:06:53.035Z,2.20
2022-08-08T10:08:00.185Z,3.05
2022-08-08T10:09:03.512Z,2.70
2022-08-08T10:10:07.074Z,2.35
2022-08-08T10:12:22.431Z,2.47
2022-08-08T10:12:38.682Z,2.65
2022-08-08T10:13:59.682Z,2.38
2022-08-08T10:15:04.743Z,2.97
2022-08-08T10:16:20.756Z,2.33
2022-08-08T10:17:56.147Z,2.90
2022-08-08T10:18:47.105Z,2.50
2022-08-08T10:20:00.370Z,2.95
2022-08-08T10:21:08.286Z,2.67
2022-08-08T10:22:26.848Z,2.45
2022-08-08T10:23:41.969Z,2.63
2022-08-08T10:24:46.904Z,2.10
2022-08-08T10:25:57.125Z,2.60
2022-08-08T10:27:05.333Z,2.13
2022-08-08T10:28:21.688Z,2.28
2022-08-08T10:29:59.916Z,2.33
2022-08-08T10:31:20.926Z,2.80
2022-08-08T10:32:50.963Z,3.00
2022-08-08T10:36:06.651Z,2.08
2022-08-08T10:36:41.135Z,2.25
2022-08-08T10:37:52.410Z,2.42
2022-08-08T10:39:02.748Z,2.47
2022-08-08T10:40:19.651Z,2.42
2022-08-08T10:41:25.915Z,2.60
2022-08-08T10:42:44.743Z,2.30
2022-08-08T10:43:50.590Z,2.47
2022-08-08T10:45:09.277Z,2.42
2022-08-08T10:46:29.545Z,2.65
2022-08-08T10:47:43.347Z,2.42
2022-08-08T10:48:58.438Z,2.47
2022-08-08T10:50:10.041Z,2.35
2022-08-08T10:51:17.144Z,2.10
2022-08-08T10:52:30.985Z,2.55
2022-08-08T10:53:39.244Z,2.78
2022-08-08T10:55:06.157Z,2.55
2022-08-08T10:56:10.282Z,2.40
2022-08-08T10:57:49.530Z,2.40
2022-08-08T10:59:03.913Z,2.55
2022-08-08T11:00:06.344Z,2.30
2022-08-08T11:01:12.710Z,2.40
2022-08-08T11:02:32.049Z,2.40
2022-08-08T11:04:01.449Z,2.53
2022-08-08T11:05:15.099Z,1.90
2022-08-08T11:06:19.666Z,2.25
2022-08-08T11:08:30.241Z,2.40
2022-08-08T11:09:14.988Z,2.20
2022-08-08T11:10:29.420Z,2.70
2022-08-08T11:12:06.126Z,2.42
2022-08-08T11:13:28.503Z,2.45
2022-08-08T11:14:28.756Z,2.13
2022-08-08T11:15:31.236Z,2.35
2022-08-08T11:16:35.974Z,2.40
2022-08-08T11:17:59.630Z,2.40
2022-08-08T11:19:04.630Z,2.40
2022-08-08T11:20:12.287Z,2.40
2022-08-08T11:21:20.448Z,2.30
2022-08-08T11:22:27.542Z,2.10
2022-08-08T11:23:35.034Z,2.30
2022-08-08T11:24:37.790Z,2.42
2022-08-08T11:25:52.005Z,2.50
2022-08-08T11:26:57.935Z,2.58
2022-08-08T11:28:01.603Z,2.35
2022-08-08T11:29:06.195Z,2.65
2022-08-08T11:30:20.456Z,1.92
2022-08-08T11:31:29.992Z,2.28
2022-08-08T11:32:47.321Z,2.40
2022-08-08T11:34:03.143Z,2.05
2022-08-08T11:35:24.517Z,2.25
2022-08-08T11:36:36.497Z,2.00
2022-08-08T11:38:35.919Z,2.05
2022-08-08T11:39:03.049Z,2.40
2022-08-08T11:40:07.277Z,1.92
2022-08-08T11:41:09.585Z,2.05
2022-08-08T11:42:12.396Z,2.00
2022-08-08T11:43:18.527Z,1.88
2022-08-08T11:44:29.087Z,1.80
2022-08-08T11:45:39.818Z,2.10
2022-08-08T11:46:57.865Z,2.00
2022-08-08T11:48:04.541Z,2.20
2022-08-08T11:49:14.006Z,2.30
2022-08-08T11:50:23.241Z,1.98
2022-08-08T11:51:29.891Z,2.15
2022-08-08T11:52:43.723Z,2.00
2022-08-08T11:53:55.099Z,1.90
2022-08-08T11:55:03.010Z,2.08
2022-08-08T11:56:18.949Z,2.17
2022-08-08T11:57:27.546Z,2.60
2022-08-08T11:58:34.951Z,1.95
2022-08-08T12:00:01.939Z,2.10
2022-08-08T12:01:12.248Z,2.08
2022-08-08T12:02:31.873Z,2.35
2022-08-08T12:03:34.709Z,2.40
2022-08-08T12:04:39.549Z,2.20
2022-08-08T12:05:41.835Z,1.90
2022-08-08T12:06:44.926Z,2.25
2022-08-08T12:07:52.929Z,2.03
2022-08-08T12:09:05.040Z,1.83
2022-08-08T12:10:15.040Z,2.22
2022-08-08T12:11:27.022Z,2.30
2022-08-08T12:12:41.692Z,1.85
2022-08-08T12:14:03.684Z,1.73
2022-08-08T12:15:06.294Z,2.50
2022-08-08T12:16:15.607Z,2.03
2022-08-08T12:17:17.450Z,1.92
2022-08-08T12:18:26.070Z,2.03
2022-08-08T12:19:37.458Z,2.00
2022-08-08T12:20:53.205Z,2.00
2022-08-08T12:22:08.899Z,2.22
2022-08-08T12:23:30.452Z,2.25
2022-08-08T12:24:48.418Z,2.13
2022-08-08T12:25:56.794Z,2.47
2022-08-08T12:26:59.184Z,2.10
2022-08-08T12:28:16.674Z,2.10
2022-08-08T12:29:40.580Z,2.13
2022-08-08T12:30:48.188Z,1.90
2022-08-08T12:32:09.556Z,2.03
2022-08-08T12:33:37.036Z,2.20
2022-08-08T12:35:04.865Z,2.03
2022-08-08T12:36:16.382Z,2.08
2022-08-08T12:37:41.462Z,2.20
2022-08-08T12:38:50.301Z,2.10
2022-08-08T12:40:23.084Z,1.90
2022-08-08T12:41:35.352Z,2.00
2022-08-08T12:42:48.835Z,2.00
2022-08-08T12:43:59.920Z,2.85
2022-08-08T12:45:53.804Z,2.25
2022-08-08T12:46:29.063Z,2.13
2022-08-08T12:47:58.803Z,2.22
2022-08-08T12:50:25.900Z,2.20
2022-08-08T12:51:39.868Z,2.35
2022-08-08T12:52:42.531Z,2.50
2022-08-08T12:54:00.467Z,2.53
2022-08-08T12:55:13.608Z,2.40
2022-08-08T12:56:23.851Z,2.22
2022-08-08T12:57:26.271Z,1.95
2022-08-08T12:58:30.261Z,2.30
2022-08-08T12:59:36.185Z,2.08
2022-08-08T13:00:46.691Z,2.25
2022-08-08T13:01:58.371Z,2.20
2022-08-08T13:03:01.161Z,1.67
2022-08-08T13:04:24.242Z,2.10
2022-08-08T13:06:02.964Z,2.15
2022-08-08T13:07:03.999Z,2.60
2022-08-08T13:08:18.151Z,2.50
2022-08-08T13:10:00.778Z,2.65
2022-08-08T13:11:02.478Z,2.08
2022-08-08T13:12:29.018Z,2.63
2022-08-08T13:13:36.800Z,2.40
2022-08-08T13:14:52.956Z,2.45
2022-08-08T13:15:56.165Z,2.60
2022-08-08T13:16:59.423Z,2.60
2022-08-08T13:18:11.065Z,2.60
2022-08-08T13:19:18.210Z,2.80
2022-08-08T13:20:24.049Z,2.30
2022-08-08T13:21:48.827Z,2.05
2022-08-08T13:22:59.278Z,2.25
2022-08-08T13:24:23.621Z,2.17
2022-08-08T13:25:35.754Z,2.78
2022-08-08T13:26:37.662Z,2.33
2022-08-08T13:27:39.859Z,2.50
2022-08-08T13:28:42.479Z,2.47
2022-08-08T13:29:53.113Z,2.55
2022-08-08T13:30:56.921Z,2.88
2022-08-08T13:32:03.559Z,2.55
2022-08-08T13:33:05.560Z,2.67
2022-08-08T13:34:11.743Z,2.80
2022-08-08T13:35:29.785Z,2.70
2022-08-08T13:36:40.574Z,2.28
2022-08-08T13:38:04.654Z,2.65
2022-08-08T13:39:07.642Z,2.50
2022-08-08T13:40:11.274Z,2.45
2022-08-08T13:41:19.972Z,2.38
2022-08-08T13:42:25.343Z,2.40
2022-08-08T13:43:27.650Z,2.55
2022-08-08T13:44:31.283Z,2.80
2022-08-08T13:45:33.051Z,2.78
2022-08-08T13:46:37.099Z,2.80
2022-08-08T13:47:40.310Z,2.80
2022-08-08T13:50:32.286Z,2.40
2022-08-08T13:50:35.038Z,3.50
2022-08-08T13:51:41.696Z,2.67
2022-08-08T13:52:51.055Z,2.58
2022-08-08T13:54:00.743Z,2.47
2022-08-08T13:55:05.891Z,3.00
2022-08-08T13:56:11.333Z,2.80
2022-08-08T13:57:16.332Z,2.80
2022-08-08T13:58:20.173Z,2.70
2022-08-08T13:59:46.484Z,2.40
2022-08-08T14:00:50.754Z,2.97
2022-08-08T14:01:57.141Z,2.83
2022-08-08T14:03:19.969Z,2.67
2022-08-08T14:04:28.556Z,2.40
2022-08-08T14:05:34.367Z,2.60
2022-08-08T14:06:44.682Z,2.50
2022-08-08T14:07:50.019Z,2.70
2022-08-08T14:08:56.866Z,2.50
2022-08-08T14:10:16.945Z,3.00
2022-08-08T14:11:21.733Z,2.70
2022-08-08T14:12:30.207Z,2.70
2022-08-08T14:13:33.902Z,2.38
2022-08-08T14:14:41.266Z,3.00
2022-08-08T14:15:46.374Z,2.30
2022-08-08T14:16:52.453Z,3.42
2022-08-08T14:17:58.236Z,2.60
2022-08-08T14:19:29.759Z,2.67
2022-08-08T14:20:56.526Z,2.30
2022-08-08T14:21:59.833Z,3.00
2022-08-08T14:23:21.537Z,2.70
2022-08-08T14:24:34.774Z,2.70
2022-08-08T14:25:46.427Z,2.92
2022-08-08T14:26:55.820Z,2.83
2022-08-08T14:28:08.228Z,2.88
2022-08-08T14:29:30.084Z,2.58
2022-08-08T14:30:35.252Z,2.80
2022-08-08T14:32:10.529Z,2.65
2022-08-08T14:33:15.216Z,3.25
2022-08-08T14:34:23.329Z,2.67
2022-08-08T14:35:36.173Z,2.60
2022-08-08T14:36:40.646Z,2.75
2022-08-08T14:37:57.163Z,2.60
2022-08-08T14:39:01.194Z,2.60
2022-08-08T14:40:05.712Z,2.92
2022-08-08T14:41:12.139Z,2.50
2022-08-08T14:42:13.831Z,2.60
2022-08-08T14:43:31.311Z,2.80
2022-08-08T14:44:41.917Z,2.65
2022-08-08T14:46:02.057Z,2.97
2022-08-08T14:47:20.999Z,2.88
2022-08-08T14:48:34.435Z,2.83
2022-08-08T14:50:06.685Z,2.53
2022-08-08T14:51:07.115Z,2.50
2022-08-08T14:52:09.305Z,2.30
2022-08-08T14:53:14.099Z,2.53
2022-08-08T14:54:16.193Z,2.25
2022-08-08T14:55:41.429Z,2.22
2022-08-08T14:56:44.268Z,2.83
2022-08-08T14:58:02.709Z,2.55
2022-08-08T14:59:22.238Z,2.53
2022-08-08T15:00:34.735Z,2.22
2022-08-08T15:01:40.732Z,2.50
2022-08-08T15:02:58.913Z,2.22
2022-08-08T15:04:09.539Z,2.80
2022-08-08T15:05:12.679Z,2.40
2022-08-08T15:06:16.607Z,2.38
2022-08-08T15:07:24.488Z,2.30
2022-08-08T15:08:38.948Z,2.50
2022-08-08T15:09:56.616Z,2.47
2022-08-08T15:11:00.249Z,2.22
2022-08-08T15:12:01.853Z,2.50
2022-08-08T15:13:05.155Z,2.38
2022-08-08T15:14:11.210Z,2.53
2022-08-08T15:15:18.695Z,2.40
2022-08-08T15:16:37.637Z,2.20
2022-08-08T15:17:46.705Z,2.30
2022-08-08T15:18:51.307Z,2.47
2022-08-08T15:19:53.481Z,2.35
2022-08-08T15:20:56.056Z,2.53
2022-08-08T15:21:57.830Z,2.72
2022-08-08T15:22:59.898Z,2.55
2022-08-08T15:24:03.537Z,3.05
2022-08-08T15:25:08.681Z,2.60
2022-08-08T15:26:20.454Z,2.20
2022-08-08T15:28:04.422Z,2.30
2022-08-08T15:28:43.772Z,2.90
2022-08-08T15:29:46.739Z,2.50
2022-08-08T15:30:48.876Z,2.75
2022-08-08T15:32:18.947Z,2.67
2022-08-08T15:33:34.979Z,2.45
2022-08-08T15:34:37.223Z,2.75
2022-08-08T15:35:41.474Z,2.70
2022-08-08T15:36:43.061Z,2.53
2022-08-08T15:37:44.874Z,2.60
2022-08-08T15:38:49.766Z,2.30
2022-08-08T15:39:53.109Z,2.22
2022-08-08T15:40:56.163Z,2.38
2022-08-08T15:41:57.797Z,2.10
2022-08-08T15:42:59.595Z,2.50
2022-08-08T15:44:01.686Z,2.45
2022-08-08T15:45:05.614Z,2.88
2022-08-08T15:46:07.219Z,2.80
2022-08-08T15:47:15.583Z,2.60
2022-08-08T15:48:20.367Z,2.25
2022-08-08T15:49:26.612Z,2.85
2022-08-08T15:50:49.312Z,3.38
2022-08-08T15:51:54.723Z,2.58
2022-08-08T15:52:58.678Z,2.80
2022-08-08T15:54:00.377Z,2.80
2022-08-08T15:55:02.107Z,4.07
2022-08-08T15:56:04.387Z,3.25
2022-08-08T15:57:10.073Z,2.50
2022-08-08T15:58:11.720Z,2.85
2022-08-08T15:59:14.060Z,2.80
2022-08-08T16:00:27.459Z,2.45
2022-08-08T16:01:40.982Z,2.55
2022-08-08T16:02:53.119Z,3.03
2022-08-08T16:03:57.393Z,3.08
2022-08-08T16:05:00.719Z,2.80
2022-08-08T16:06:06.219Z,2.80
2022-08-08T16:07:19.126Z,2.95
2022-08-08T16:08:21.273Z,3.13
2022-08-08T16:13:04.325Z,2.50
2022-08-08T16:13:04.571Z,2.85
2022-08-08T16:13:28.301Z,2.60
2022-08-08T16:13:34.787Z,3.03
2022-08-08T16:14:53.547Z,2.15
2022-08-08T16:15:58.738Z,2.55
2022-08-08T16:17:01.864Z,2.88
2022-08-08T16:18:11.304Z,3.25
2022-08-08T16:19:13.932Z,3.10
2022-08-08T16:20:19.581Z,3.00
2022-08-08T16:21:27.049Z,2.58
2022-08-08T16:22:30.846Z,2.55
2022-08-08T16:23:33.005Z,2.40
2022-08-08T16:24:36.121Z,2.65
2022-08-08T16:25:46.286Z,2.58
2022-08-08T16:26:54.971Z,2.80
2022-08-08T16:27:58.003Z,2.80
2022-08-08T16:28:59.979Z,2.70
2022-08-08T16:30:13.463Z,2.85
2022-08-08T16:31:16.453Z,4.63
2022-08-08T16:32:19.997Z,2.65
2022-08-08T16:33:29.794Z,2.35
2022-08-08T16:34:39.929Z,2.47